sensor_id;sensor_type;location;lat;lon;timestamp;temperature;humidity
20706;DHT22;10514;49.468;11.044;2024-03-08T00:01:48;1.80;84.00
20706;DHT22;10514;49.468;11.044;2024-03-08T00:04:13;1.80;84.10
20706;DHT22;10514;49.468;11.044;2024-03-08T00:06:41;1.80;84.30
20706;DHT22;10514;49.468;11.044;2024-03-08T00:09:06;1.70;84.40
20706;DHT22;10514;49.468;11.044;2024-03-08T00:11:33;1.80;84.60
20706;DHT22;10514;49.468;11.044;2024-03-08T00:14:00;1.70;84.60
20706;DHT22;10514;49.468;11.044;2024-03-08T00:16:26;1.70;84.90
20706;DHT22;10514;49.468;11.044;2024-03-08T00:18:51;1.70;84.90
20706;DHT22;10514;49.468;11.044;2024-03-08T00:21:17;1.70;85.30
20706;DHT22;10514;49.468;11.044;2024-03-08T00:23:42;1.70;85.10
20706;DHT22;10514;49.468;11.044;2024-03-08T00:26:08;1.70;85.30
20706;DHT22;10514;49.468;11.044;2024-03-08T00:28:34;1.60;86.00
20706;DHT22;10514;49.468;11.044;2024-03-08T00:31:02;1.60;86.30
20706;DHT22;10514;49.468;11.044;2024-03-08T00:33:28;1.60;86.00
20706;DHT22;10514;49.468;11.044;2024-03-08T00:35:54;1.70;86.30
20706;DHT22;10514;49.468;11.044;2024-03-08T00:38:19;1.70;85.70
20706;DHT22;10514;49.468;11.044;2024-03-08T00:40:45;1.80;85.90
20706;DHT22;10514;49.468;11.044;2024-03-08T00:43:11;1.70;86.20
20706;DHT22;10514;49.468;11.044;2024-03-08T00:45:36;1.70;86.40
20706;DHT22;10514;49.468;11.044;2024-03-08T00:48:08;1.70;86.40
20706;DHT22;10514;49.468;11.044;2024-03-08T00:50:33;1.80;86.40
20706;DHT22;10514;49.468;11.044;2024-03-08T00:52:59;1.70;86.10
20706;DHT22;10514;49.468;11.044;2024-03-08T00:55:25;1.80;86.70
20706;DHT22;10514;49.468;11.044;2024-03-08T00:57:51;1.80;86.40
20706;DHT22;10514;49.468;11.044;2024-03-08T01:00:19;1.80;86.40
20706;DHT22;10514;49.468;11.044;2024-03-08T01:02:46;1.90;86.60
20706;DHT22;10514;49.468;11.044;2024-03-08T01:05:12;1.90;86.20
20706;DHT22;10514;49.468;11.044;2024-03-08T01:07:38;1.90;86.00
20706;DHT22;10514;49.468;11.044;2024-03-08T01:10:04;2.00;85.90
20706;DHT22;10514;49.468;11.044;2024-03-08T01:12:34;2.00;85.80
20706;DHT22;10514;49.468;11.044;2024-03-08T01:15:00;2.00;85.60
20706;DHT22;10514;49.468;11.044;2024-03-08T01:17:26;2.00;84.80
20706;DHT22;10514;49.468;11.044;2024-03-08T01:19:52;2.10;84.60
20706;DHT22;10514;49.468;11.044;2024-03-08T01:22:19;2.20;84.20
20706;DHT22;10514;49.468;11.044;2024-03-08T01:24:45;2.10;84.00
20706;DHT22;10514;49.468;11.044;2024-03-08T01:27:10;2.20;84.00
20706;DHT22;10514;49.468;11.044;2024-03-08T01:29:37;2.10;84.10
20706;DHT22;10514;49.468;11.044;2024-03-08T01:32:03;2.20;84.20
20706;DHT22;10514;49.468;11.044;2024-03-08T01:34:28;2.10;83.70
20706;DHT22;10514;49.468;11.044;2024-03-08T01:36:54;2.10;84.10
20706;DHT22;10514;49.468;11.044;2024-03-08T01:39:21;2.10;84.80
20706;DHT22;10514;49.468;11.044;2024-03-08T01:41:47;2.10;84.00
20706;DHT22;10514;49.468;11.044;2024-03-08T01:44:13;2.10;83.70
20706;DHT22;10514;49.468;11.044;2024-03-08T01:46:46;2.10;83.80
20706;DHT22;10514;49.468;11.044;2024-03-08T01:49:13;2.10;83.60
20706;DHT22;10514;49.468;11.044;2024-03-08T01:51:40;2.00;83.70
20706;DHT22;10514;49.468;11.044;2024-03-08T01:54:07;2.00;84.40
20706;DHT22;10514;49.468;11.044;2024-03-08T01:56:35;2.00;84.00
20706;DHT22;10514;49.468;11.044;2024-03-08T01:59:02;2.00;84.20
20706;DHT22;10514;49.468;11.044;2024-03-08T02:01:28;2.00;84.20
20706;DHT22;10514;49.468;11.044;2024-03-08T02:03:54;2.00;83.50
20706;DHT22;10514;49.468;11.044;2024-03-08T02:06:20;2.00;83.70
20706;DHT22;10514;49.468;11.044;2024-03-08T02:08:46;2.10;83.40
20706;DHT22;10514;49.468;11.044;2024-03-08T02:11:12;2.00;83.70
20706;DHT22;10514;49.468;11.044;2024-03-08T02:13:38;2.00;83.70
20706;DHT22;10514;49.468;11.044;2024-03-08T02:16:04;1.90;84.10
20706;DHT22;10514;49.468;11.044;2024-03-08T02:18:30;2.00;83.90
20706;DHT22;10514;49.468;11.044;2024-03-08T02:20:59;1.90;84.30
20706;DHT22;10514;49.468;11.044;2024-03-08T02:23:26;1.80;84.50
20706;DHT22;10514;49.468;11.044;2024-03-08T02:25:52;1.80;84.90
20706;DHT22;10514;49.468;11.044;2024-03-08T02:28:19;1.90;84.50
20706;DHT22;10514;49.468;11.044;2024-03-08T02:30:46;1.80;84.90
20706;DHT22;10514;49.468;11.044;2024-03-08T02:33:17;1.90;84.80
20706;DHT22;10514;49.468;11.044;2024-03-08T02:35:44;1.90;84.70
20706;DHT22;10514;49.468;11.044;2024-03-08T02:38:18;1.80;84.70
20706;DHT22;10514;49.468;11.044;2024-03-08T02:40:45;1.80;84.80
20706;DHT22;10514;49.468;11.044;2024-03-08T02:43:12;1.80;84.90
20706;DHT22;10514;49.468;11.044;2024-03-08T02:45:38;1.90;84.60
20706;DHT22;10514;49.468;11.044;2024-03-08T02:48:04;1.80;84.40
20706;DHT22;10514;49.468;11.044;2024-03-08T02:50:32;1.80;84.90
20706;DHT22;10514;49.468;11.044;2024-03-08T02:52:57;1.80;85.00
20706;DHT22;10514;49.468;11.044;2024-03-08T02:55:23;1.80;84.90
20706;DHT22;10514;49.468;11.044;2024-03-08T02:57:51;1.80;85.00
20706;DHT22;10514;49.468;11.044;2024-03-08T03:00:17;1.70;85.30
20706;DHT22;10514;49.468;11.044;2024-03-08T03:02:44;1.80;85.00
20706;DHT22;10514;49.468;11.044;2024-03-08T03:05:10;1.70;85.10
20706;DHT22;10514;49.468;11.044;2024-03-08T03:07:37;1.70;85.10
20706;DHT22;10514;49.468;11.044;2024-03-08T03:10:03;1.70;85.30
20706;DHT22;10514;49.468;11.044;2024-03-08T03:12:29;1.70;85.10
20706;DHT22;10514;49.468;11.044;2024-03-08T03:14:55;1.70;85.30
20706;DHT22;10514;49.468;11.044;2024-03-08T03:17:24;1.70;85.40
20706;DHT22;10514;49.468;11.044;2024-03-08T03:19:50;1.80;86.00
20706;DHT22;10514;49.468;11.044;2024-03-08T03:22:17;1.90;85.70
20706;DHT22;10514;49.468;11.044;2024-03-08T03:24:44;1.90;84.60
20706;DHT22;10514;49.468;11.044;2024-03-08T03:27:09;1.90;84.40
20706;DHT22;10514;49.468;11.044;2024-03-08T03:29:42;1.90;84.40
20706;DHT22;10514;49.468;11.044;2024-03-08T03:32:11;1.90;83.80
20706;DHT22;10514;49.468;11.044;2024-03-08T03:34:37;1.90;83.60
20706;DHT22;10514;49.468;11.044;2024-03-08T03:37:03;1.80;83.90
20706;DHT22;10514;49.468;11.044;2024-03-08T03:39:29;1.80;84.50
20706;DHT22;10514;49.468;11.044;2024-03-08T03:42:00;1.80;84.60
20706;DHT22;10514;49.468;11.044;2024-03-08T03:44:28;1.80;84.30
20706;DHT22;10514;49.468;11.044;2024-03-08T03:46:53;1.70;84.50
20706;DHT22;10514;49.468;11.044;2024-03-08T03:49:19;1.60;85.40
20706;DHT22;10514;49.468;11.044;2024-03-08T03:51:45;1.50;85.60
20706;DHT22;10514;49.468;11.044;2024-03-08T03:54:11;1.50;85.50
20706;DHT22;10514;49.468;11.044;2024-03-08T03:56:37;1.50;85.50
20706;DHT22;10514;49.468;11.044;2024-03-08T03:59:02;1.40;86.00
20706;DHT22;10514;49.468;11.044;2024-03-08T04:01:28;1.50;85.80
20706;DHT22;10514;49.468;11.044;2024-03-08T04:03:54;1.40;85.70
20706;DHT22;10514;49.468;11.044;2024-03-08T04:06:20;1.40;86.10
20706;DHT22;10514;49.468;11.044;2024-03-08T04:08:46;1.30;86.40
20706;DHT22;10514;49.468;11.044;2024-03-08T04:11:11;1.30;87.00
20706;DHT22;10514;49.468;11.044;2024-03-08T04:13:37;1.30;87.00
20706;DHT22;10514;49.468;11.044;2024-03-08T04:16:03;1.30;87.40
20706;DHT22;10514;49.468;11.044;2024-03-08T04:18:33;1.20;87.40
20706;DHT22;10514;49.468;11.044;2024-03-08T04:21:01;1.20;88.00
20706;DHT22;10514;49.468;11.044;2024-03-08T04:23:27;1.10;88.20
20706;DHT22;10514;49.468;11.044;2024-03-08T04:25:54;1.20;87.90
20706;DHT22;10514;49.468;11.044;2024-03-08T04:28:19;1.20;88.10
20706;DHT22;10514;49.468;11.044;2024-03-08T04:30:45;1.10;88.40
20706;DHT22;10514;49.468;11.044;2024-03-08T04:33:11;1.10;88.70
20706;DHT22;10514;49.468;11.044;2024-03-08T04:35:37;1.10;88.90
20706;DHT22;10514;49.468;11.044;2024-03-08T04:38:02;1.00;89.30
20706;DHT22;10514;49.468;11.044;2024-03-08T04:40:30;1.00;89.30
20706;DHT22;10514;49.468;11.044;2024-03-08T04:42:58;1.00;89.40
20706;DHT22;10514;49.468;11.044;2024-03-08T04:45:24;1.00;89.90
20706;DHT22;10514;49.468;11.044;2024-03-08T04:47:51;0.90;89.80
20706;DHT22;10514;49.468;11.044;2024-03-08T04:50:18;0.80;90.10
20706;DHT22;10514;49.468;11.044;2024-03-08T04:52:43;0.90;90.00
20706;DHT22;10514;49.468;11.044;2024-03-08T04:55:09;0.90;90.20
20706;DHT22;10514;49.468;11.044;2024-03-08T04:57:34;0.90;90.20
20706;DHT22;10514;49.468;11.044;2024-03-08T05:00:00;0.90;90.20
20706;DHT22;10514;49.468;11.044;2024-03-08T05:02:26;0.90;90.30
20706;DHT22;10514;49.468;11.044;2024-03-08T05:04:52;0.90;90.30
20706;DHT22;10514;49.468;11.044;2024-03-08T05:07:17;0.90;90.40
20706;DHT22;10514;49.468;11.044;2024-03-08T05:09:43;0.80;90.30
20706;DHT22;10514;49.468;11.044;2024-03-08T05:12:08;0.80;90.80
20706;DHT22;10514;49.468;11.044;2024-03-08T05:14:34;0.80;90.90
20706;DHT22;10514;49.468;11.044;2024-03-08T05:17:00;0.80;90.70
20706;DHT22;10514;49.468;11.044;2024-03-08T05:19:26;0.80;90.70
20706;DHT22;10514;49.468;11.044;2024-03-08T05:21:51;0.80;90.80
20706;DHT22;10514;49.468;11.044;2024-03-08T05:24:17;0.80;90.70
20706;DHT22;10514;49.468;11.044;2024-03-08T05:26:43;0.90;91.10
20706;DHT22;10514;49.468;11.044;2024-03-08T05:29:09;0.90;90.80
20706;DHT22;10514;49.468;11.044;2024-03-08T05:31:48;0.90;90.50
20706;DHT22;10514;49.468;11.044;2024-03-08T05:34:18;0.90;90.60
20706;DHT22;10514;49.468;11.044;2024-03-08T05:36:45;0.90;90.50
20706;DHT22;10514;49.468;11.044;2024-03-08T05:39:15;0.90;90.60
20706;DHT22;10514;49.468;11.044;2024-03-08T05:41:43;0.90;90.60
20706;DHT22;10514;49.468;11.044;2024-03-08T05:44:09;0.80;90.80
20706;DHT22;10514;49.468;11.044;2024-03-08T05:46:36;0.80;90.80
20706;DHT22;10514;49.468;11.044;2024-03-08T05:49:03;0.90;91.00
20706;DHT22;10514;49.468;11.044;2024-03-08T05:51:31;0.80;90.90
20706;DHT22;10514;49.468;11.044;2024-03-08T05:53:57;0.90;90.70
20706;DHT22;10514;49.468;11.044;2024-03-08T05:56:23;0.90;90.80
20706;DHT22;10514;49.468;11.044;2024-03-08T05:58:49;0.90;90.90
20706;DHT22;10514;49.468;11.044;2024-03-08T06:01:15;0.90;90.90
20706;DHT22;10514;49.468;11.044;2024-03-08T06:03:41;0.90;91.20
20706;DHT22;10514;49.468;11.044;2024-03-08T06:06:12;1.00;91.00
20706;DHT22;10514;49.468;11.044;2024-03-08T06:08:37;0.90;91.10
20706;DHT22;10514;49.468;11.044;2024-03-08T06:11:03;0.90;91.20
20706;DHT22;10514;49.468;11.044;2024-03-08T06:13:30;0.90;91.10
20706;DHT22;10514;49.468;11.044;2024-03-08T06:15:56;1.00;91.20
20706;DHT22;10514;49.468;11.044;2024-03-08T06:18:22;0.90;91.00
20706;DHT22;10514;49.468;11.044;2024-03-08T06:20:47;0.90;91.20
20706;DHT22;10514;49.468;11.044;2024-03-08T06:23:13;1.00;91.30
20706;DHT22;10514;49.468;11.044;2024-03-08T06:25:43;1.00;91.20
20706;DHT22;10514;49.468;11.044;2024-03-08T06:28:09;1.10;91.20
20706;DHT22;10514;49.468;11.044;2024-03-08T06:30:34;1.10;90.80
20706;DHT22;10514;49.468;11.044;2024-03-08T06:33:00;1.20;90.90
20706;DHT22;10514;49.468;11.044;2024-03-08T06:35:25;1.20;90.70
20706;DHT22;10514;49.468;11.044;2024-03-08T06:37:51;1.20;90.50
20706;DHT22;10514;49.468;11.044;2024-03-08T06:40:17;1.30;90.60
20706;DHT22;10514;49.468;11.044;2024-03-08T06:42:42;1.40;90.30
20706;DHT22;10514;49.468;11.044;2024-03-08T06:45:08;1.40;90.20
20706;DHT22;10514;49.468;11.044;2024-03-08T06:47:35;1.40;90.30
20706;DHT22;10514;49.468;11.044;2024-03-08T06:50:01;1.50;90.00
20706;DHT22;10514;49.468;11.044;2024-03-08T06:52:27;1.60;89.70
20706;DHT22;10514;49.468;11.044;2024-03-08T06:54:52;1.60;89.60
20706;DHT22;10514;49.468;11.044;2024-03-08T06:57:18;1.70;89.70
20706;DHT22;10514;49.468;11.044;2024-03-08T06:59:47;1.80;89.10
20706;DHT22;10514;49.468;11.044;2024-03-08T07:02:13;1.80;88.60
20706;DHT22;10514;49.468;11.044;2024-03-08T07:04:38;1.80;88.70
20706;DHT22;10514;49.468;11.044;2024-03-08T07:07:05;1.90;88.70
20706;DHT22;10514;49.468;11.044;2024-03-08T07:09:30;1.90;88.80
20706;DHT22;10514;49.468;11.044;2024-03-08T07:11:56;2.00;88.00
20706;DHT22;10514;49.468;11.044;2024-03-08T07:14:22;2.10;87.90
20706;DHT22;10514;49.468;11.044;2024-03-08T07:16:48;2.20;87.30
20706;DHT22;10514;49.468;11.044;2024-03-08T07:19:14;2.20;87.20
20706;DHT22;10514;49.468;11.044;2024-03-08T07:21:40;2.30;86.90
20706;DHT22;10514;49.468;11.044;2024-03-08T07:24:07;2.30;86.80
20706;DHT22;10514;49.468;11.044;2024-03-08T07:26:51;2.50;86.40
20706;DHT22;10514;49.468;11.044;2024-03-08T07:29:17;2.60;85.70
20706;DHT22;10514;49.468;11.044;2024-03-08T07:31:44;2.70;85.20
20706;DHT22;10514;49.468;11.044;2024-03-08T07:34:16;2.80;84.50
20706;DHT22;10514;49.468;11.044;2024-03-08T07:36:42;3.10;83.20
20706;DHT22;10514;49.468;11.044;2024-03-08T07:39:07;3.60;81.20
20706;DHT22;10514;49.468;11.044;2024-03-08T07:41:40;4.20;78.60
20706;DHT22;10514;49.468;11.044;2024-03-08T07:44:08;5.10;74.60
20706;DHT22;10514;49.468;11.044;2024-03-08T07:46:34;5.80;72.50
20706;DHT22;10514;49.468;11.044;2024-03-08T07:49:00;6.30;69.90
20706;DHT22;10514;49.468;11.044;2024-03-08T07:51:26;7.20;67.30
20706;DHT22;10514;49.468;11.044;2024-03-08T07:53:51;7.70;64.50
20706;DHT22;10514;49.468;11.044;2024-03-08T07:56:18;8.00;62.70
20706;DHT22;10514;49.468;11.044;2024-03-08T07:58:44;8.30;61.90
20706;DHT22;10514;49.468;11.044;2024-03-08T08:01:17;8.70;60.70
20706;DHT22;10514;49.468;11.044;2024-03-08T08:03:43;8.70;60.00
20706;DHT22;10514;49.468;11.044;2024-03-08T08:06:09;9.00;59.50
20706;DHT22;10514;49.468;11.044;2024-03-08T08:08:35;9.10;58.50
20706;DHT22;10514;49.468;11.044;2024-03-08T08:11:02;9.30;57.30
20706;DHT22;10514;49.468;11.044;2024-03-08T08:13:28;9.80;56.90
20706;DHT22;10514;49.468;11.044;2024-03-08T08:15:57;10.00;55.90
20706;DHT22;10514;49.468;11.044;2024-03-08T08:18:23;9.90;55.90
20706;DHT22;10514;49.468;11.044;2024-03-08T08:20:51;9.80;56.00
20706;DHT22;10514;49.468;11.044;2024-03-08T08:23:17;10.10;55.40
20706;DHT22;10514;49.468;11.044;2024-03-08T08:25:45;9.70;55.20
20706;DHT22;10514;49.468;11.044;2024-03-08T08:28:10;9.30;56.40
20706;DHT22;10514;49.468;11.044;2024-03-08T08:30:38;9.70;56.50
20706;DHT22;10514;49.468;11.044;2024-03-08T08:33:04;9.80;55.20
20706;DHT22;10514;49.468;11.044;2024-03-08T08:35:31;10.00;55.30
20706;DHT22;10514;49.468;11.044;2024-03-08T08:37:57;10.80;54.00
20706;DHT22;10514;49.468;11.044;2024-03-08T08:40:24;11.20;52.50
20706;DHT22;10514;49.468;11.044;2024-03-08T08:42:53;11.70;51.20
20706;DHT22;10514;49.468;11.044;2024-03-08T08:45:19;12.20;49.70
20706;DHT22;10514;49.468;11.044;2024-03-08T08:47:45;12.00;49.40
20706;DHT22;10514;49.468;11.044;2024-03-08T08:50:12;12.40;49.60
20706;DHT22;10514;49.468;11.044;2024-03-08T08:52:39;12.50;48.10
20706;DHT22;10514;49.468;11.044;2024-03-08T08:55:04;12.50;48.30
20706;DHT22;10514;49.468;11.044;2024-03-08T08:57:32;12.20;47.80
20706;DHT22;10514;49.468;11.044;2024-03-08T08:59:59;12.30;48.10
20706;DHT22;10514;49.468;11.044;2024-03-08T09:02:25;11.80;48.30
20706;DHT22;10514;49.468;11.044;2024-03-08T09:04:51;11.70;49.90
20706;DHT22;10514;49.468;11.044;2024-03-08T09:07:17;11.70;48.50
20706;DHT22;10514;49.468;11.044;2024-03-08T09:09:44;11.60;48.90
20706;DHT22;10514;49.468;11.044;2024-03-08T09:12:10;11.40;49.60
20706;DHT22;10514;49.468;11.044;2024-03-08T09:14:40;11.90;49.00
20706;DHT22;10514;49.468;11.044;2024-03-08T09:17:06;12.10;48.20
20706;DHT22;10514;49.468;11.044;2024-03-08T09:19:35;12.10;47.30
20706;DHT22;10514;49.468;11.044;2024-03-08T09:22:00;12.10;47.20
20706;DHT22;10514;49.468;11.044;2024-03-08T09:24:26;12.10;47.70
20706;DHT22;10514;49.468;11.044;2024-03-08T09:26:51;11.80;47.70
20706;DHT22;10514;49.468;11.044;2024-03-08T09:29:17;11.70;48.50
20706;DHT22;10514;49.468;11.044;2024-03-08T09:31:43;11.10;49.40
20706;DHT22;10514;49.468;11.044;2024-03-08T09:34:10;11.50;49.90
20706;DHT22;10514;49.468;11.044;2024-03-08T09:36:35;11.80;48.70
20706;DHT22;10514;49.468;11.044;2024-03-08T09:39:01;12.20;47.80
20706;DHT22;10514;49.468;11.044;2024-03-08T09:41:26;12.30;47.70
20706;DHT22;10514;49.468;11.044;2024-03-08T09:43:52;12.50;46.50
20706;DHT22;10514;49.468;11.044;2024-03-08T09:46:19;12.80;46.30
20706;DHT22;10514;49.468;11.044;2024-03-08T09:48:46;12.70;46.30
20706;DHT22;10514;49.468;11.044;2024-03-08T09:51:12;12.90;46.10
20706;DHT22;10514;49.468;11.044;2024-03-08T09:53:40;12.70;46.10
20706;DHT22;10514;49.468;11.044;2024-03-08T09:56:07;12.10;47.50
20706;DHT22;10514;49.468;11.044;2024-03-08T09:58:33;11.40;52.40
20706;DHT22;10514;49.468;11.044;2024-03-08T10:03:28;11.70;50.70
20706;DHT22;10514;49.468;11.044;2024-03-08T10:05:56;12.20;48.30
20706;DHT22;10514;49.468;11.044;2024-03-08T10:08:28;12.10;47.50
20706;DHT22;10514;49.468;11.044;2024-03-08T10:10:57;12.40;48.80
20706;DHT22;10514;49.468;11.044;2024-03-08T10:13:26;12.70;47.10
20706;DHT22;10514;49.468;11.044;2024-03-08T10:15:55;12.40;46.90
20706;DHT22;10514;49.468;11.044;2024-03-08T10:18:21;12.60;46.70
20706;DHT22;10514;49.468;11.044;2024-03-08T10:21:05;12.70;46.80
20706;DHT22;10514;49.468;11.044;2024-03-08T10:23:32;12.40;46.90
20706;DHT22;10514;49.468;11.044;2024-03-08T10:26:13;12.50;46.80
20706;DHT22;10514;49.468;11.044;2024-03-08T10:28:45;12.40;46.40
20706;DHT22;10514;49.468;11.044;2024-03-08T10:31:13;12.50;45.30
20706;DHT22;10514;49.468;11.044;2024-03-08T10:33:40;12.30;45.40
20706;DHT22;10514;49.468;11.044;2024-03-08T10:36:10;12.00;46.20
20706;DHT22;10514;49.468;11.044;2024-03-08T10:38:39;12.10;46.60
20706;DHT22;10514;49.468;11.044;2024-03-08T10:41:06;12.10;46.40
20706;DHT22;10514;49.468;11.044;2024-03-08T10:43:40;12.30;45.70
20706;DHT22;10514;49.468;11.044;2024-03-08T10:46:21;12.10;46.00
20706;DHT22;10514;49.468;11.044;2024-03-08T10:48:52;11.70;46.50
20706;DHT22;10514;49.468;11.044;2024-03-08T10:51:21;11.60;46.70
20706;DHT22;10514;49.468;11.044;2024-03-08T10:53:47;11.60;46.90
20706;DHT22;10514;49.468;11.044;2024-03-08T10:56:14;11.80;47.10
20706;DHT22;10514;49.468;11.044;2024-03-08T10:58:40;11.80;46.30
20706;DHT22;10514;49.468;11.044;2024-03-08T11:01:06;11.60;46.40
20706;DHT22;10514;49.468;11.044;2024-03-08T11:06:18;11.80;46.70
20706;DHT22;10514;49.468;11.044;2024-03-08T11:08:47;11.70;47.10
20706;DHT22;10514;49.468;11.044;2024-03-08T11:11:25;11.40;47.50
20706;DHT22;10514;49.468;11.044;2024-03-08T11:13:58;11.20;47.60
20706;DHT22;10514;49.468;11.044;2024-03-08T11:18:58;10.50;49.20
20706;DHT22;10514;49.468;11.044;2024-03-08T11:21:30;10.50;48.90
20706;DHT22;10514;49.468;11.044;2024-03-08T11:24:12;10.10;50.10
20706;DHT22;10514;49.468;11.044;2024-03-08T11:26:39;10.10;50.70
20706;DHT22;10514;49.468;11.044;2024-03-08T11:32:17;10.10;49.80
20706;DHT22;10514;49.468;11.044;2024-03-08T11:34:46;10.20;49.80
20706;DHT22;10514;49.468;11.044;2024-03-08T11:37:20;10.00;50.00
20706;DHT22;10514;49.468;11.044;2024-03-08T11:39:52;10.00;50.60
20706;DHT22;10514;49.468;11.044;2024-03-08T11:42:19;10.00;50.80
20706;DHT22;10514;49.468;11.044;2024-03-08T11:44:50;10.00;50.20
20706;DHT22;10514;49.468;11.044;2024-03-08T11:47:16;10.00;51.60
20706;DHT22;10514;49.468;11.044;2024-03-08T11:49:41;10.00;51.90
20706;DHT22;10514;49.468;11.044;2024-03-08T11:52:13;10.10;51.20
20706;DHT22;10514;49.468;11.044;2024-03-08T11:54:47;10.20;50.30
20706;DHT22;10514;49.468;11.044;2024-03-08T11:57:18;10.10;49.50
20706;DHT22;10514;49.468;11.044;2024-03-08T11:59:52;10.00;50.40
20706;DHT22;10514;49.468;11.044;2024-03-08T12:02:18;10.10;51.10
20706;DHT22;10514;49.468;11.044;2024-03-08T12:04:45;10.20;49.70
20706;DHT22;10514;49.468;11.044;2024-03-08T12:07:12;10.30;49.90
20706;DHT22;10514;49.468;11.044;2024-03-08T12:09:40;10.30;50.00
20706;DHT22;10514;49.468;11.044;2024-03-08T12:12:07;10.50;49.40
20706;DHT22;10514;49.468;11.044;2024-03-08T12:14:33;10.50;48.60
20706;DHT22;10514;49.468;11.044;2024-03-08T12:16:59;10.50;48.50
20706;DHT22;10514;49.468;11.044;2024-03-08T12:19:29;10.40;47.80
20706;DHT22;10514;49.468;11.044;2024-03-08T12:21:55;10.40;48.00
20706;DHT22;10514;49.468;11.044;2024-03-08T12:24:20;10.50;48.10
20706;DHT22;10514;49.468;11.044;2024-03-08T12:26:47;10.40;48.20
20706;DHT22;10514;49.468;11.044;2024-03-08T12:29:24;10.50;48.20
20706;DHT22;10514;49.468;11.044;2024-03-08T12:31:59;10.50;48.50
20706;DHT22;10514;49.468;11.044;2024-03-08T12:34:27;10.50;48.40
20706;DHT22;10514;49.468;11.044;2024-03-08T12:36:54;10.60;48.00
20706;DHT22;10514;49.468;11.044;2024-03-08T12:39:21;10.70;47.90
20706;DHT22;10514;49.468;11.044;2024-03-08T12:41:56;10.70;48.40
20706;DHT22;10514;49.468;11.044;2024-03-08T12:44:27;10.70;46.80
20706;DHT22;10514;49.468;11.044;2024-03-08T12:46:54;10.70;47.30
20706;DHT22;10514;49.468;11.044;2024-03-08T12:49:20;10.70;47.40
20706;DHT22;10514;49.468;11.044;2024-03-08T12:51:48;10.70;47.40
20706;DHT22;10514;49.468;11.044;2024-03-08T12:54:13;10.70;48.00
20706;DHT22;10514;49.468;11.044;2024-03-08T12:56:39;10.80;48.20
20706;DHT22;10514;49.468;11.044;2024-03-08T12:59:08;10.90;47.50
20706;DHT22;10514;49.468;11.044;2024-03-08T13:01:35;10.90;47.80
20706;DHT22;10514;49.468;11.044;2024-03-08T13:04:04;11.00;47.30
20706;DHT22;10514;49.468;11.044;2024-03-08T13:06:31;11.00;47.60
20706;DHT22;10514;49.468;11.044;2024-03-08T13:08:58;11.00;47.80
20706;DHT22;10514;49.468;11.044;2024-03-08T13:11:24;11.00;48.40
20706;DHT22;10514;49.468;11.044;2024-03-08T13:13:51;11.10;47.70
20706;DHT22;10514;49.468;11.044;2024-03-08T13:16:16;11.20;46.80
20706;DHT22;10514;49.468;11.044;2024-03-08T13:18:44;11.30;47.50
20706;DHT22;10514;49.468;11.044;2024-03-08T13:21:10;11.30;46.20
20706;DHT22;10514;49.468;11.044;2024-03-08T13:23:39;11.40;45.30
20706;DHT22;10514;49.468;11.044;2024-03-08T13:26:12;11.40;44.10
20706;DHT22;10514;49.468;11.044;2024-03-08T13:28:45;11.40;44.30
20706;DHT22;10514;49.468;11.044;2024-03-08T13:31:11;11.60;45.40
20706;DHT22;10514;49.468;11.044;2024-03-08T13:33:37;11.70;45.20
20706;DHT22;10514;49.468;11.044;2024-03-08T13:36:05;11.70;44.70
20706;DHT22;10514;49.468;11.044;2024-03-08T13:38:35;11.80;45.80
20706;DHT22;10514;49.468;11.044;2024-03-08T13:41:03;11.90;46.50
20706;DHT22;10514;49.468;11.044;2024-03-08T13:43:28;12.00;48.30
20706;DHT22;10514;49.468;11.044;2024-03-08T13:45:55;12.00;48.30
20706;DHT22;10514;49.468;11.044;2024-03-08T13:48:21;12.20;48.70
20706;DHT22;10514;49.468;11.044;2024-03-08T13:50:48;12.20;48.10
20706;DHT22;10514;49.468;11.044;2024-03-08T13:53:14;12.20;48.50
20706;DHT22;10514;49.468;11.044;2024-03-08T13:55:40;12.20;48.20
20706;DHT22;10514;49.468;11.044;2024-03-08T13:58:06;12.10;48.50
20706;DHT22;10514;49.468;11.044;2024-03-08T14:00:35;12.00;48.50
20706;DHT22;10514;49.468;11.044;2024-03-08T14:03:01;11.90;48.70
20706;DHT22;10514;49.468;11.044;2024-03-08T14:05:31;11.90;48.70
20706;DHT22;10514;49.468;11.044;2024-03-08T14:08:00;11.90;49.10
20706;DHT22;10514;49.468;11.044;2024-03-08T14:10:29;11.90;48.70
20706;DHT22;10514;49.468;11.044;2024-03-08T14:12:57;11.90;49.50
20706;DHT22;10514;49.468;11.044;2024-03-08T14:15:22;11.80;48.90
20706;DHT22;10514;49.468;11.044;2024-03-08T14:17:55;11.80;48.80
20706;DHT22;10514;49.468;11.044;2024-03-08T14:20:21;11.80;49.20
20706;DHT22;10514;49.468;11.044;2024-03-08T14:22:54;11.90;49.10
20706;DHT22;10514;49.468;11.044;2024-03-08T14:25:20;11.90;48.80
20706;DHT22;10514;49.468;11.044;2024-03-08T14:27:49;11.90;48.20
20706;DHT22;10514;49.468;11.044;2024-03-08T14:30:15;11.90;48.70
20706;DHT22;10514;49.468;11.044;2024-03-08T14:33:06;11.90;48.90
20706;DHT22;10514;49.468;11.044;2024-03-08T14:35:37;11.90;48.90
20706;DHT22;10514;49.468;11.044;2024-03-08T14:38:03;11.90;49.00
20706;DHT22;10514;49.468;11.044;2024-03-08T14:40:29;11.80;48.90
20706;DHT22;10514;49.468;11.044;2024-03-08T14:42:56;11.80;49.30
20706;DHT22;10514;49.468;11.044;2024-03-08T14:45:22;11.70;48.90
20706;DHT22;10514;49.468;11.044;2024-03-08T14:47:50;11.70;49.50
20706;DHT22;10514;49.468;11.044;2024-03-08T14:50:20;11.70;49.80
20706;DHT22;10514;49.468;11.044;2024-03-08T14:52:48;11.50;49.90
20706;DHT22;10514;49.468;11.044;2024-03-08T14:55:14;11.60;50.20
20706;DHT22;10514;49.468;11.044;2024-03-08T14:57:43;11.70;50.10
20706;DHT22;10514;49.468;11.044;2024-03-08T15:00:13;11.60;50.00
20706;DHT22;10514;49.468;11.044;2024-03-08T15:02:45;11.60;50.00
20706;DHT22;10514;49.468;11.044;2024-03-08T15:05:10;11.40;50.40
20706;DHT22;10514;49.468;11.044;2024-03-08T15:07:39;11.30;51.00
20706;DHT22;10514;49.468;11.044;2024-03-08T15:10:07;11.20;51.30
20706;DHT22;10514;49.468;11.044;2024-03-08T15:12:37;11.20;51.40
20706;DHT22;10514;49.468;11.044;2024-03-08T15:15:05;11.20;51.30
20706;DHT22;10514;49.468;11.044;2024-03-08T15:17:34;11.20;51.40
20706;DHT22;10514;49.468;11.044;2024-03-08T15:20:00;11.20;51.40
20706;DHT22;10514;49.468;11.044;2024-03-08T15:22:26;11.10;51.80
20706;DHT22;10514;49.468;11.044;2024-03-08T15:24:52;11.10;51.70
20706;DHT22;10514;49.468;11.044;2024-03-08T15:27:18;11.10;51.80
20706;DHT22;10514;49.468;11.044;2024-03-08T15:29:44;11.00;52.60
20706;DHT22;10514;49.468;11.044;2024-03-08T15:32:14;11.10;52.50
20706;DHT22;10514;49.468;11.044;2024-03-08T15:34:45;11.10;52.50
20706;DHT22;10514;49.468;11.044;2024-03-08T15:37:11;11.20;52.30